createdAt,value
2023-03-04T00:01:46.615Z,3.51
2023-03-04T00:06:48.406Z,3.30
2023-03-04T00:11:49.622Z,3.45
2023-03-04T00:16:50.860Z,3.39
2023-03-04T00:21:52.111Z,3.43
2023-03-04T00:26:53.307Z,3.32
2023-03-04T00:31:54.654Z,3.18
2023-03-04T00:37:01.192Z,3.25
2023-03-04T00:42:02.400Z,3.27
2023-03-04T00:47:03.673Z,3.09
2023-03-04T00:52:04.953Z,3.18
2023-03-04T00:57:06.211Z,2.93
2023-03-04T01:02:07.468Z,2.71
2023-03-04T01:07:08.719Z,2.82
2023-03-04T01:12:09.972Z,2.88
2023-03-04T01:17:12.234Z,2.93
2023-03-04T01:22:15.136Z,2.85
2023-03-04T01:27:16.493Z,2.94
2023-03-04T01:32:17.833Z,2.83
2023-03-04T01:37:19.101Z,2.75
2023-03-04T01:42:20.363Z,2.68
2023-03-04T01:47:21.606Z,2.71
2023-03-04T01:52:22.833Z,2.53
2023-03-04T01:57:24.088Z,2.55
2023-03-04T02:02:25.349Z,2.70
2023-03-04T02:07:26.581Z,2.69
2023-03-04T02:12:27.897Z,2.63
2023-03-04T02:17:29.129Z,2.67
2023-03-04T02:22:30.398Z,2.61
2023-03-04T02:27:31.738Z,2.54
2023-03-04T02:32:33.006Z,2.60
2023-03-04T02:37:34.229Z,2.44
2023-03-04T02:42:35.504Z,2.46
2023-03-04T02:47:36.914Z,2.47
2023-03-04T02:52:38.128Z,2.45
2023-03-04T02:57:39.454Z,2.30
2023-03-04T03:02:40.814Z,2.25
2023-03-04T03:07:42.203Z,2.18
2023-03-04T03:12:43.418Z,2.16
2023-03-04T03:17:44.624Z,2.00
2023-03-04T03:22:45.884Z,1.95
2023-03-04T03:27:47.127Z,1.72
2023-03-04T03:32:48.358Z,1.64
2023-03-04T03:37:49.613Z,1.82
2023-03-04T03:42:50.844Z,1.62
2023-03-04T03:47:52.107Z,1.75
2023-03-04T03:52:53.440Z,1.43
2023-03-04T03:57:54.801Z,1.44
2023-03-04T04:02:56.135Z,1.39
2023-03-04T04:07:57.440Z,1.27
2023-03-04T04:12:59.300Z,1.20
2023-03-04T04:18:00.513Z,1.22
2023-03-04T04:23:02.130Z,1.09
2023-03-04T04:28:03.444Z,0.84
2023-03-04T04:33:04.832Z,0.83
2023-03-04T04:38:06.175Z,1.10
2023-03-04T04:43:07.443Z,0.86
2023-03-04T04:48:09.010Z,0.92
2023-03-04T04:53:10.276Z,0.82
2023-03-04T04:58:11.506Z,0.91
2023-03-04T05:03:12.801Z,0.89
2023-03-04T05:08:14.042Z,0.89
2023-03-04T05:13:15.285Z,0.79
2023-03-04T05:18:16.521Z,0.61
2023-03-04T05:23:17.751Z,0.38
2023-03-04T05:28:19.023Z,0.28
2023-03-04T05:33:20.279Z,0.41
2023-03-04T05:38:21.530Z,0.25
2023-03-04T05:43:23.440Z,0.24
2023-03-04T05:48:24.658Z,-0.12
2023-03-04T05:53:25.898Z,-0.24
2023-03-04T05:58:27.207Z,-0.09
2023-03-04T06:03:28.452Z,0.09
2023-03-04T06:08:29.753Z,0.29
2023-03-04T06:13:31.182Z,0.34
2023-03-04T06:18:32.416Z,0.03
2023-03-04T06:23:33.690Z,0.30
2023-03-04T06:28:34.916Z,0.48
2023-03-04T06:33:36.185Z,0.79
2023-03-04T06:38:37.470Z,0.89
2023-03-04T06:43:38.693Z,0.85
2023-03-04T06:48:39.978Z,0.41
2023-03-04T06:53:41.212Z,0.09
2023-03-04T06:58:42.476Z,-0.58
2023-03-04T07:03:43.765Z,-0.62
2023-03-04T07:08:45.005Z,-0.64
2023-03-04T07:13:46.560Z,-0.80
2023-03-04T07:18:47.836Z,-1.13
2023-03-04T07:23:49.137Z,-1.05
2023-03-04T07:28:52.282Z,-0.89
2023-03-04T07:33:53.654Z,-0.78
2023-03-04T07:38:55.029Z,-0.50
2023-03-04T07:43:57.360Z,-0.50
2023-03-04T07:48:58.616Z,-0.61
2023-03-04T07:54:00.171Z,-0.60
2023-03-04T07:59:01.546Z,-0.46
2023-03-04T08:04:02.918Z,-0.53
2023-03-04T08:09:04.250Z,-0.74
2023-03-04T08:14:05.538Z,-0.62
2023-03-04T08:19:06.936Z,-0.59
2023-03-04T08:24:08.958Z,-0.78
2023-03-04T08:29:10.433Z,-0.75
2023-03-04T08:34:12.976Z,-0.67
2023-03-04T08:39:14.226Z,-0.70
2023-03-04T08:44:15.494Z,-0.75
2023-03-04T08:49:16.728Z,-0.62
2023-03-04T08:54:17.978Z,-0.70
2023-03-04T08:59:19.237Z,-0.79
2023-03-04T09:04:20.460Z,-0.62
2023-03-04T09:09:21.679Z,-0.34
2023-03-04T09:14:22.916Z,3.11
2023-03-04T09:19:24.309Z,5.03
2023-03-04T09:24:25.550Z,5.75
2023-03-04T09:29:26.894Z,3.84
2023-03-04T09:34:28.187Z,6.08
2023-03-04T09:39:29.447Z,5.09
2023-03-04T09:44:30.814Z,2.00
2023-03-04T09:49:32.065Z,0.72
2023-03-04T09:54:33.423Z,0.40
2023-03-04T09:59:34.666Z,0.02
2023-03-04T10:04:36.086Z,0.08
2023-03-04T10:09:37.384Z,0.08
2023-03-04T10:14:38.752Z,0.19
2023-03-04T10:19:39.989Z,0.48
2023-03-04T10:24:41.205Z,0.05
2023-03-04T10:29:42.551Z,0.18
2023-03-04T10:34:43.822Z,-0.17
2023-03-04T10:39:46.401Z,-0.21
2023-03-04T10:44:47.616Z,0.14
2023-03-04T10:49:48.833Z,-0.11
2023-03-04T10:54:50.030Z,0.04
2023-03-04T10:59:53.358Z,0.50
2023-03-04T11:04:54.640Z,0.31
2023-03-04T11:09:58.317Z,0.37
2023-03-04T11:14:59.747Z,0.32
2023-03-04T11:20:02.318Z,0.49
2023-03-04T11:25:03.705Z,0.83
2023-03-04T11:30:05.066Z,0.97
2023-03-04T11:35:37.356Z,1.16
2023-03-04T11:40:39.010Z,1.13
2023-03-04T11:45:40.760Z,1.30
2023-03-04T11:50:45.712Z,1.32
2023-03-04T11:55:50.026Z,1.14
2023-03-04T12:00:51.396Z,1.24
2023-03-04T12:05:52.883Z,0.83
2023-03-04T12:10:54.176Z,1.47
2023-03-04T12:15:55.603Z,1.54
2023-03-04T12:20:56.965Z,1.46
2023-03-04T12:25:58.235Z,1.62
2023-03-04T12:30:59.627Z,1.35
2023-03-04T12:36:01.009Z,1.32
2023-03-04T12:41:02.426Z,1.56
2023-03-04T12:46:03.687Z,1.65
2023-03-04T12:51:05.033Z,1.36
2023-03-04T12:56:08.027Z,1.23
2023-03-04T13:01:12.580Z,1.31
2023-03-04T13:06:13.848Z,1.56
2023-03-04T13:11:15.270Z,1.30
2023-03-04T13:16:16.548Z,1.38
2023-03-04T13:21:17.852Z,1.61
2023-03-04T13:26:19.153Z,1.61
2023-03-04T13:31:20.652Z,1.77
2023-03-04T13:36:21.985Z,1.39
2023-03-04T13:41:23.252Z,1.48
2023-03-04T13:46:24.647Z,1.59
2023-03-04T13:51:29.657Z,1.73
2023-03-04T13:56:31.662Z,2.06
2023-03-04T14:01:32.966Z,2.06
2023-03-04T14:06:34.241Z,1.69
2023-03-04T14:11:36.379Z,1.54
2023-03-04T14:16:37.783Z,1.86
2023-03-04T14:21:39.069Z,1.76
2023-03-04T14:26:40.321Z,1.86
2023-03-04T14:31:41.651Z,1.59
2023-03-04T14:36:42.883Z,1.71
2023-03-04T14:41:46.012Z,1.69
2023-03-04T14:47:00.581Z,1.74
2023-03-04T14:52:07.582Z,1.73
2023-03-04T14:57:08.859Z,1.77
2023-03-04T15:02:10.294Z,1.62
2023-03-04T15:07:11.576Z,1.50
2023-03-04T15:12:12.810Z,1.69
2023-03-04T15:17:14.124Z,1.64
2023-03-04T15:22:15.440Z,1.58
2023-03-04T15:27:17.092Z,1.76
2023-03-04T15:32:18.433Z,1.56
2023-03-04T15:37:19.769Z,1.46
2023-03-04T15:42:21.073Z,1.99
2023-03-04T15:47:22.282Z,1.92
2023-03-04T15:52:23.602Z,2.04
2023-03-04T16:12:13.294Z,1.92
2023-03-04T16:17:16.275Z,1.94
2023-03-04T16:22:17.656Z,2.14
2023-03-04T16:27:19.937Z,1.67
2023-03-04T16:46:36.379Z,2.13
2023-03-04T16:51:37.721Z,2.25
2023-03-04T16:56:38.929Z,2.38
2023-03-04T17:01:40.252Z,2.61
2023-03-04T17:06:41.544Z,2.47
2023-03-04T17:11:42.856Z,2.22
2023-03-04T17:16:44.107Z,2.75
2023-03-04T17:21:45.320Z,2.50
2023-03-04T17:26:46.519Z,2.44
2023-03-04T17:31:47.878Z,2.28
2023-03-04T17:36:49.193Z,2.06
2023-03-04T17:41:51.143Z,1.87
2023-03-04T17:46:52.463Z,1.68
2023-03-04T17:51:53.823Z,1.78
2023-03-04T17:56:55.178Z,1.84
2023-03-04T18:01:56.456Z,1.94
2023-03-04T18:06:57.732Z,1.96
2023-03-04T18:11:59.004Z,2.19
2023-03-04T18:17:00.233Z,2.00
2023-03-04T18:22:01.483Z,1.93
2023-03-04T18:27:02.796Z,2.34
2023-03-04T18:32:04.116Z,2.27
2023-03-04T18:37:05.456Z,2.13
2023-03-04T18:42:06.668Z,2.26
2023-03-04T18:47:07.969Z,2.09
2023-03-04T18:52:09.213Z,1.88
2023-03-04T18:57:10.497Z,2.12
2023-03-04T19:02:11.715Z,2.30
2023-03-04T19:07:12.997Z,2.43
2023-03-04T19:12:14.308Z,2.29
2023-03-04T19:17:15.547Z,2.38
2023-03-04T19:22:16.821Z,2.25
2023-03-04T19:27:18.093Z,2.35
2023-03-04T19:32:19.445Z,2.34
2023-03-04T19:37:20.712Z,2.09
2023-03-04T19:42:22.016Z,2.15
2023-03-04T19:47:23.343Z,1.89
2023-03-04T19:52:24.807Z,2.02
2023-03-04T19:57:27.622Z,2.33
2023-03-04T20:02:31.848Z,2.48
2023-03-04T20:07:33.215Z,2.25
2023-03-04T20:12:39.634Z,2.50
2023-03-04T20:17:40.962Z,2.62
2023-03-04T20:22:42.613Z,2.37
2023-03-04T20:27:44.040Z,2.45
2023-03-04T20:32:45.461Z,2.17
2023-03-04T20:37:46.733Z,2.36
2023-03-04T20:42:48.080Z,2.39
2023-03-04T20:47:49.835Z,2.01
2023-03-04T20:52:51.048Z,1.98
2023-03-04T20:57:52.343Z,1.96
2023-03-04T21:02:55.006Z,1.80
2023-03-04T21:07:56.346Z,1.84
2023-03-04T21:12:57.725Z,1.69
2023-03-04T21:17:59.010Z,1.75
2023-03-04T21:23:00.271Z,1.81
2023-03-04T21:28:01.483Z,1.62
2023-03-04T21:33:04.457Z,1.51
2023-03-04T21:38:06.624Z,1.39
2023-03-04T21:43:07.942Z,1.36
2023-03-04T21:48:09.195Z,1.45
2023-03-04T21:53:10.406Z,1.52
2023-03-04T21:58:11.615Z,1.56
2023-03-04T22:03:12.850Z,1.32
2023-03-04T22:08:14.117Z,1.37
2023-03-04T22:13:15.455Z,1.45
2023-03-04T22:18:16.674Z,1.48
2023-03-04T22:23:20.074Z,1.63
2023-03-04T22:28:21.388Z,1.66
2023-03-04T22:33:22.613Z,1.53
2023-03-04T22:38:23.824Z,1.85
2023-03-04T22:43:25.094Z,1.97
2023-03-04T22:48:26.653Z,2.23
2023-03-04T22:53:27.874Z,2.38
2023-03-04T22:58:29.126Z,2.55
2023-03-04T23:03:30.971Z,3.00
2023-03-04T23:08:34.877Z,2.70
2023-03-04T23:13:36.394Z,2.79
2023-03-04T23:18:38.291Z,2.73
2023-03-04T23:23:39.540Z,2.65
2023-03-04T23:28:40.755Z,2.52
2023-03-04T23:33:43.030Z,2.48
2023-03-04T23:38:44.363Z,2.67
2023-03-04T23:43:45.628Z,2.61
2023-03-04T23:48:47.031Z,2.53
2023-03-04T23:53:48.334Z,2.66
2023-03-04T23:58:49.924Z,2.75
